ジッダ の空港の天気 - METARとTAF

キング・アブドゥルアズィーズ国際空港(ジッダ) ( OEJN / JED ) - サウジアラビア ジッダ
飛行場実況気象(Metar)
観測時間02/17 17:00 AST (02/17 14:00 UTC)
風向・風速西 6m/s
視程10km以上
天気現象
少しの雲 雲底高度 1220m
気温25℃
湿度36%
気圧1014hPa
METAROEJN 171400Z 28011KT 9999 FEW040 25/09 Q1014 NOSIG
過去の天気等 Google飛行場航空写真 Wunderground天気予報

過去48時間のMETAR

飛行場予報(TAF)
発表時間: 2/17 14:00 AST (2/17 11:00 UTC)
予報対象時間: 17日15時 AST ~ 18日21時 AST
風向・風速北北西 4m/s 瞬間風速 9m/s
視程10km以上
なし
17日21時 AST ~ 17日23時 AST に徐々に
風向・風速北北東 4m/s
TAF OEJN 171100Z 1712/1818 33008G18KT CAVOK
BECMG 1718/1720 02008KT